DAL1211 KATL-KMIA
Flight info
| Callsign | DAL1211 |
|---|---|
| Flight time | 1h 16m |
| Altitude | 41000 |
| Route | BANNG3 LUCKK HONID FROGZ5 |
| Aircraft | A359/H-SDE2E3GHIJ3J4J5LM1ORWXY/LB1D1 |
Departure
| Time | 2026-05-05 01:56 |
|---|---|
| Airport | Hartsfield Jackson Atlanta International Airport (KATL) |
Arrival
| Time | 2026-05-05 03:12 |
|---|---|
| Airport | Miami International Airport (KMIA) |
| Time | Latitude | Longitude | Altitude | Speed | Heading |
|---|---|---|---|---|---|
| 2026-05-05 01:24 | 33.63834 | -84.42622 | 1042 ft | 0 kts | 89° |
| 2026-05-05 01:47 | 33.63834 | -84.42633 | 1042 ft | 3 kts | 90° |
| 2026-05-05 01:47 | 33.63834 | -84.42657 | 1042 ft | 3 kts | 90° |
| 2026-05-05 01:47 | 33.63835 | -84.42682 | 1044 ft | 3 kts | 91° |
| 2026-05-05 01:47 | 33.63835 | -84.42705 | 1044 ft | 1 kts | 90° |
| 2026-05-05 01:48 | 33.63836 | -84.42725 | 1042 ft | 3 kts | 124° |
| 2026-05-05 01:48 | 33.63848 | -84.42735 | 1042 ft | 3 kts | 177° |
| 2026-05-05 01:48 | 33.63869 | -84.42735 | 1043 ft | 3 kts | 181° |
| 2026-05-05 01:48 | 33.63873 | -84.42735 | 1043 ft | 0 kts | 180° |
| 2026-05-05 01:51 | 33.63865 | -84.42735 | 1042 ft | 3 kts | 180° |
| 2026-05-05 01:51 | 33.63813 | -84.42735 | 1042 ft | 11 kts | 180° |
| 2026-05-05 01:51 | 33.63722 | -84.42735 | 1042 ft | 14 kts | 182° |
| 2026-05-05 01:51 | 33.63619 | -84.42766 | 1042 ft | 17 kts | 171° |
| 2026-05-05 01:52 | 33.63582 | -84.42706 | 1042 ft | 10 kts | 95° |
| 2026-05-05 01:52 | 33.63582 | -84.42589 | 1042 ft | 18 kts | 90° |
| 2026-05-05 01:52 | 33.63582 | -84.42413 | 1042 ft | 23 kts | 90° |
| 2026-05-05 01:52 | 33.63582 | -84.42222 | 1043 ft | 24 kts | 90° |
| 2026-05-05 01:53 | 33.63582 | -84.42013 | 1042 ft | 26 kts | 89° |
| 2026-05-05 01:53 | 33.63582 | -84.41806 | 1041 ft | 25 kts | 90° |
| 2026-05-05 01:53 | 33.63582 | -84.41586 | 1041 ft | 28 kts | 90° |
| 2026-05-05 01:53 | 33.63583 | -84.41350 | 1041 ft | 27 kts | 90° |
| 2026-05-05 01:54 | 33.63583 | -84.41162 | 1041 ft | 16 kts | 90° |
| 2026-05-05 01:54 | 33.63583 | -84.41033 | 1041 ft | 13 kts | 90° |
| 2026-05-05 01:54 | 33.63568 | -84.40928 | 1042 ft | 13 kts | 134° |
| 2026-05-05 01:54 | 33.63487 | -84.40925 | 1042 ft | 12 kts | 218° |
| 2026-05-05 01:55 | 33.63472 | -84.41021 | 1042 ft | 14 kts | 270° |
| 2026-05-05 01:55 | 33.63472 | -84.41152 | 1040 ft | 21 kts | 270° |
| 2026-05-05 01:55 | 33.63471 | -84.41634 | 1040 ft | 96 kts | 270° |
| 2026-05-05 01:55 | 33.63470 | -84.42711 | 1042 ft | 161 kts | 269° |
| 2026-05-05 01:56 | 33.63465 | -84.44113 | 1750 ft | 168 kts | 268° |
| 2026-05-05 01:56 | 33.63477 | -84.45547 | 2515 ft | 176 kts | 267° |
| 2026-05-05 01:56 | 33.63502 | -84.47053 | 3322 ft | 185 kts | 268° |
| 2026-05-05 01:56 | 33.63546 | -84.48628 | 4128 ft | 192 kts | 269° |
| 2026-05-05 01:57 | 33.63626 | -84.50246 | 4970 ft | 196 kts | 271° |
| 2026-05-05 01:57 | 33.63624 | -84.51960 | 5458 ft | 216 kts | 264° |
| 2026-05-05 01:57 | 33.63551 | -84.53823 | 6072 ft | 230 kts | 265° |
| 2026-05-05 01:57 | 33.63500 | -84.55839 | 6610 ft | 253 kts | 266° |
| 2026-05-05 01:58 | 33.63475 | -84.57999 | 7390 ft | 263 kts | 267° |
| 2026-05-05 01:58 | 33.63464 | -84.60219 | 8393 ft | 268 kts | 268° |
| 2026-05-05 01:58 | 33.63443 | -84.62475 | 9281 ft | 274 kts | 266° |
| 2026-05-05 01:58 | 33.63078 | -84.64722 | 9804 ft | 274 kts | 248° |
| 2026-05-05 01:59 | 33.62027 | -84.66612 | 9976 ft | 276 kts | 224° |
| 2026-05-05 01:59 | 33.60459 | -84.67943 | 9973 ft | 278 kts | 211° |
| 2026-05-05 01:59 | 33.58737 | -84.69015 | 9965 ft | 280 kts | 204° |
| 2026-05-05 01:59 | 33.56857 | -84.69512 | 9965 ft | 284 kts | 184° |
| 2026-05-05 02:00 | 33.54880 | -84.69309 | 9968 ft | 286 kts | 173° |
| 2026-05-05 02:00 | 33.52908 | -84.68916 | 9968 ft | 287 kts | 173° |
| 2026-05-05 02:00 | 33.50937 | -84.68517 | 9977 ft | 287 kts | 173° |
| 2026-05-05 02:00 | 33.48956 | -84.68127 | 10259 ft | 290 kts | 173° |
| 2026-05-05 02:01 | 33.46958 | -84.67742 | 11052 ft | 293 kts | 173° |
| 2026-05-05 02:01 | 33.44939 | -84.67357 | 12110 ft | 294 kts | 173° |
| 2026-05-05 02:01 | 33.42907 | -84.66950 | 13122 ft | 299 kts | 171° |
| 2026-05-05 02:01 | 33.40888 | -84.66218 | 13953 ft | 310 kts | 160° |
| 2026-05-05 02:02 | 33.38836 | -84.65157 | 14363 ft | 332 kts | 158° |
| 2026-05-05 02:02 | 33.36667 | -84.63968 | 14753 ft | 353 kts | 158° |
| 2026-05-05 02:02 | 33.34402 | -84.62727 | 15369 ft | 363 kts | 158° |
| 2026-05-05 02:02 | 33.32081 | -84.61462 | 16147 ft | 370 kts | 158° |
| 2026-05-05 02:03 | 33.29720 | -84.60182 | 16958 ft | 375 kts | 159° |
| 2026-05-05 02:03 | 33.27330 | -84.58891 | 17773 ft | 380 kts | 159° |
| 2026-05-05 02:03 | 33.24906 | -84.57584 | 18572 ft | 384 kts | 159° |
| 2026-05-05 02:03 | 33.22449 | -84.56261 | 19273 ft | 390 kts | 159° |
| 2026-05-05 02:04 | 33.19953 | -84.54919 | 19982 ft | 396 kts | 159° |
| 2026-05-05 02:04 | 33.17422 | -84.53559 | 20705 ft | 402 kts | 159° |
| 2026-05-05 02:04 | 33.14882 | -84.52195 | 21438 ft | 408 kts | 159° |
| 2026-05-05 02:04 | 33.12274 | -84.50796 | 22149 ft | 413 kts | 159° |
| 2026-05-05 02:05 | 33.09633 | -84.49379 | 22865 ft | 419 kts | 160° |
| 2026-05-05 02:05 | 33.06953 | -84.47943 | 23581 ft | 425 kts | 160° |
| 2026-05-05 02:05 | 33.04244 | -84.46493 | 24173 ft | 430 kts | 160° |
| 2026-05-05 02:05 | 33.01500 | -84.45023 | 24749 ft | 435 kts | 160° |
| 2026-05-05 02:06 | 32.98715 | -84.43567 | 25338 ft | 439 kts | 162° |
| 2026-05-05 02:06 | 32.95803 | -84.42483 | 25965 ft | 437 kts | 173° |
| 2026-05-05 02:06 | 32.92797 | -84.42028 | 26581 ft | 436 kts | 181° |
| 2026-05-05 02:06 | 32.89758 | -84.41855 | 27180 ft | 438 kts | 183° |
| 2026-05-05 02:07 | 32.86693 | -84.41794 | 27799 ft | 441 kts | 184° |
| 2026-05-05 02:07 | 32.83614 | -84.41777 | 28402 ft | 445 kts | 185° |
| 2026-05-05 02:07 | 32.80501 | -84.41764 | 28985 ft | 449 kts | 185° |
| 2026-05-05 02:07 | 32.77360 | -84.41739 | 29557 ft | 453 kts | 184° |
| 2026-05-05 02:08 | 32.74198 | -84.41699 | 30027 ft | 459 kts | 185° |
| 2026-05-05 02:08 | 32.70983 | -84.41647 | 30422 ft | 464 kts | 185° |
| 2026-05-05 02:08 | 32.67777 | -84.41587 | 30840 ft | 469 kts | 185° |
| 2026-05-05 02:08 | 32.64494 | -84.41521 | 31247 ft | 473 kts | 185° |
| 2026-05-05 02:09 | 32.61185 | -84.41454 | 31653 ft | 478 kts | 185° |
| 2026-05-05 02:09 | 32.57841 | -84.41385 | 32052 ft | 482 kts | 186° |
| 2026-05-05 02:09 | 32.54460 | -84.41317 | 32299 ft | 489 kts | 186° |
| 2026-05-05 02:09 | 32.51033 | -84.41251 | 32505 ft | 497 kts | 186° |
| 2026-05-05 02:10 | 32.47549 | -84.41183 | 32652 ft | 505 kts | 186° |
| 2026-05-05 02:10 | 32.44000 | -84.41115 | 32812 ft | 513 kts | 186° |
| 2026-05-05 02:10 | 32.40412 | -84.41045 | 32987 ft | 520 kts | 186° |
| 2026-05-05 02:10 | 32.36773 | -84.40972 | 33168 ft | 526 kts | 186° |
| 2026-05-05 02:11 | 32.33088 | -84.40898 | 33337 ft | 530 kts | 186° |
| 2026-05-05 02:11 | 32.29432 | -84.40823 | 33476 ft | 534 kts | 186° |
| 2026-05-05 02:11 | 32.25717 | -84.40749 | 33586 ft | 536 kts | 186° |
| 2026-05-05 02:11 | 32.21976 | -84.40668 | 33660 ft | 538 kts | 187° |
| 2026-05-05 02:12 | 32.10664 | -84.40434 | 33844 ft | 543 kts | 187° |
| 2026-05-05 02:13 | 32.03110 | -84.40281 | 34026 ft | 544 kts | 187° |
| 2026-05-05 02:13 | 31.95544 | -84.40128 | 34212 ft | 543 kts | 187° |
| 2026-05-05 02:14 | 31.87946 | -84.39979 | 34221 ft | 548 kts | 187° |
| 2026-05-05 02:14 | 31.80324 | -84.39827 | 34370 ft | 548 kts | 187° |
| 2026-05-05 02:14 | 31.76507 | -84.39750 | 34472 ft | 547 kts | 187° |
| 2026-05-05 02:15 | 31.72698 | -84.39675 | 34559 ft | 547 kts | 187° |
| 2026-05-05 02:15 | 31.65070 | -84.39416 | 34661 ft | 555 kts | 182° |
| 2026-05-05 02:16 | 31.57418 | -84.37712 | 34768 ft | 566 kts | 175° |
| 2026-05-05 02:16 | 31.49739 | -84.35736 | 34934 ft | 565 kts | 175° |
| 2026-05-05 02:17 | 31.42060 | -84.33784 | 35109 ft | 565 kts | 175° |
| 2026-05-05 02:17 | 31.34362 | -84.31839 | 35139 ft | 567 kts | 175° |
| 2026-05-05 02:18 | 31.26658 | -84.29897 | 35308 ft | 566 kts | 175° |
| 2026-05-05 02:18 | 31.18971 | -84.27961 | 35602 ft | 561 kts | 175° |
| 2026-05-05 02:18 | 31.15165 | -84.27004 | 35793 ft | 559 kts | 175° |
| 2026-05-05 02:19 | 31.11365 | -84.26051 | 35835 ft | 559 kts | 175° |
| 2026-05-05 02:19 | 31.03746 | -84.24143 | 35934 ft | 561 kts | 175° |
| 2026-05-05 02:20 | 30.96112 | -84.22232 | 36093 ft | 560 kts | 175° |
| 2026-05-05 02:20 | 30.88556 | -84.20344 | 36224 ft | 560 kts | 175° |
| 2026-05-05 02:21 | 30.80924 | -84.18445 | 36331 ft | 559 kts | 175° |
| 2026-05-05 02:21 | 30.73343 | -84.16554 | 36466 ft | 559 kts | 175° |
| 2026-05-05 02:22 | 30.65717 | -84.14655 | 36607 ft | 558 kts | 175° |
| 2026-05-05 02:22 | 30.58131 | -84.12771 | 36740 ft | 558 kts | 175° |
| 2026-05-05 02:23 | 30.50575 | -84.10897 | 36851 ft | 557 kts | 175° |
| 2026-05-05 02:23 | 30.42993 | -84.09021 | 36948 ft | 557 kts | 175° |
| 2026-05-05 02:24 | 30.35543 | -84.06381 | 37035 ft | 572 kts | 158° |
| 2026-05-05 02:24 | 30.28620 | -84.01859 | 37035 ft | 573 kts | 155° |
| 2026-05-05 02:25 | 30.21695 | -83.97240 | 37028 ft | 572 kts | 155° |
| 2026-05-05 02:25 | 30.14794 | -83.92663 | 37037 ft | 572 kts | 155° |
| 2026-05-05 02:26 | 30.07899 | -83.88101 | 37046 ft | 568 kts | 155° |
| 2026-05-05 02:26 | 30.01039 | -83.83572 | 37044 ft | 566 kts | 155° |
| 2026-05-05 02:27 | 29.94199 | -83.79065 | 37038 ft | 566 kts | 155° |
| 2026-05-05 02:27 | 29.87408 | -83.74597 | 37043 ft | 566 kts | 155° |
| 2026-05-05 02:28 | 29.80560 | -83.70099 | 37043 ft | 566 kts | 155° |
| 2026-05-05 02:28 | 29.73705 | -83.65607 | 37036 ft | 566 kts | 155° |
| 2026-05-05 02:29 | 29.66868 | -83.61126 | 36972 ft | 567 kts | 155° |
| 2026-05-05 02:29 | 29.59990 | -83.56630 | 37035 ft | 568 kts | 155° |
| 2026-05-05 02:30 | 29.53124 | -83.52147 | 37037 ft | 567 kts | 155° |
| 2026-05-05 02:30 | 29.46287 | -83.47689 | 37034 ft | 563 kts | 155° |
| 2026-05-05 02:31 | 29.39495 | -83.43270 | 37034 ft | 562 kts | 155° |
| 2026-05-05 02:31 | 29.32673 | -83.38839 | 37030 ft | 563 kts | 156° |
| 2026-05-05 02:32 | 29.25824 | -83.34447 | 37033 ft | 561 kts | 159° |
| 2026-05-05 02:32 | 29.19954 | -83.31350 | 37034 ft | 558 kts | 162° |
| 2026-05-05 02:33 | 29.11710 | -83.27183 | 37029 ft | 558 kts | 162° |
| 2026-05-05 02:33 | 29.04597 | -83.23586 | 37024 ft | 559 kts | 162° |
| 2026-05-05 02:34 | 28.98687 | -83.20598 | 37029 ft | 559 kts | 162° |
| 2026-05-05 02:34 | 28.91582 | -83.17009 | 37029 ft | 559 kts | 162° |
| 2026-05-05 02:35 | 28.84481 | -83.13426 | 37026 ft | 555 kts | 162° |
| 2026-05-05 02:35 | 28.77433 | -83.09875 | 36985 ft | 553 kts | 162° |
| 2026-05-05 02:36 | 28.70365 | -83.06322 | 37026 ft | 554 kts | 162° |
| 2026-05-05 02:36 | 28.63303 | -83.02776 | 37029 ft | 555 kts | 162° |
| 2026-05-05 02:37 | 28.56238 | -82.99233 | 37018 ft | 555 kts | 162° |
| 2026-05-05 02:37 | 28.49168 | -82.95693 | 37023 ft | 555 kts | 162° |
| 2026-05-05 02:38 | 28.42141 | -82.92181 | 37020 ft | 557 kts | 162° |
| 2026-05-05 02:38 | 28.35045 | -82.88638 | 37018 ft | 557 kts | 162° |
| 2026-05-05 02:39 | 28.27949 | -82.85100 | 37018 ft | 557 kts | 162° |
| 2026-05-05 02:39 | 28.20843 | -82.81563 | 37018 ft | 557 kts | 162° |
| 2026-05-05 02:40 | 28.13733 | -82.78030 | 37031 ft | 559 kts | 162° |
| 2026-05-05 02:40 | 28.06646 | -82.74510 | 37038 ft | 555 kts | 162° |
| 2026-05-05 02:41 | 27.99485 | -82.71472 | 37040 ft | 542 kts | 174° |
| 2026-05-05 02:41 | 27.92109 | -82.69937 | 37021 ft | 539 kts | 177° |
| 2026-05-05 02:42 | 27.84722 | -82.68501 | 37002 ft | 540 kts | 177° |
| 2026-05-05 02:42 | 27.77302 | -82.67046 | 37000 ft | 541 kts | 177° |
| 2026-05-05 02:43 | 27.69883 | -82.65588 | 36998 ft | 541 kts | 177° |
| 2026-05-05 02:43 | 27.62471 | -82.64131 | 36999 ft | 541 kts | 177° |
| 2026-05-05 02:44 | 27.55022 | -82.62669 | 37002 ft | 541 kts | 177° |
| 2026-05-05 02:44 | 27.47619 | -82.60868 | 37001 ft | 548 kts | 171° |
| 2026-05-05 02:45 | 27.40328 | -82.58605 | 37008 ft | 548 kts | 171° |
| 2026-05-05 02:45 | 27.32962 | -82.56396 | 37008 ft | 547 kts | 172° |
| 2026-05-05 02:46 | 27.25592 | -82.54221 | 36986 ft | 548 kts | 172° |
| 2026-05-05 02:46 | 27.18209 | -82.52056 | 37006 ft | 550 kts | 172° |
| 2026-05-05 02:47 | 27.10790 | -82.49886 | 36999 ft | 550 kts | 172° |
| 2026-05-05 02:47 | 27.03380 | -82.47723 | 36999 ft | 550 kts | 172° |
| 2026-05-05 02:48 | 26.95977 | -82.45559 | 36972 ft | 551 kts | 172° |
| 2026-05-05 02:48 | 26.92329 | -82.44111 | 36998 ft | 562 kts | 160° |
| 2026-05-05 02:48 | 26.88968 | -82.41818 | 37006 ft | 571 kts | 146° |
| 2026-05-05 02:49 | 26.82913 | -82.36081 | 36581 ft | 563 kts | 143° |
| 2026-05-05 02:49 | 26.79988 | -82.33246 | 35606 ft | 565 kts | 142° |
| 2026-05-05 02:49 | 26.77010 | -82.30376 | 34618 ft | 568 kts | 142° |
| 2026-05-05 02:49 | 26.73990 | -82.27474 | 33656 ft | 570 kts | 142° |
| 2026-05-05 02:50 | 26.70984 | -82.24590 | 32683 ft | 569 kts | 142° |
| 2026-05-05 02:50 | 26.67976 | -82.21709 | 31758 ft | 569 kts | 142° |
| 2026-05-05 02:50 | 26.64978 | -82.18842 | 31048 ft | 566 kts | 142° |
| 2026-05-05 02:50 | 26.61981 | -82.15979 | 30385 ft | 568 kts | 142° |
| 2026-05-05 02:51 | 26.58967 | -82.13104 | 29653 ft | 570 kts | 142° |
| 2026-05-05 02:51 | 26.55948 | -82.10226 | 28921 ft | 571 kts | 142° |
| 2026-05-05 02:51 | 26.52935 | -82.07353 | 28278 ft | 566 kts | 142° |
| 2026-05-05 02:51 | 26.49984 | -82.04479 | 27588 ft | 559 kts | 141° |
| 2026-05-05 02:52 | 26.47122 | -82.01563 | 26916 ft | 555 kts | 140° |
| 2026-05-05 02:52 | 26.44297 | -81.98683 | 26248 ft | 547 kts | 141° |
| 2026-05-05 02:52 | 26.41493 | -81.95841 | 25597 ft | 541 kts | 141° |
| 2026-05-05 02:52 | 26.38713 | -81.93034 | 24969 ft | 535 kts | 141° |
| 2026-05-05 02:53 | 26.35968 | -81.90267 | 24410 ft | 527 kts | 141° |
| 2026-05-05 02:53 | 26.33267 | -81.87550 | 23893 ft | 517 kts | 142° |
| 2026-05-05 02:53 | 26.30636 | -81.84904 | 23657 ft | 501 kts | 142° |
| 2026-05-05 02:53 | 26.28119 | -81.82375 | 23414 ft | 486 kts | 142° |
| 2026-05-05 02:54 | 26.25640 | -81.79886 | 23136 ft | 473 kts | 142° |
| 2026-05-05 02:54 | 26.23459 | -81.77194 | 22828 ft | 467 kts | 127° |
| 2026-05-05 02:54 | 26.21903 | -81.74051 | 22447 ft | 460 kts | 117° |
| 2026-05-05 02:54 | 26.20538 | -81.70844 | 21956 ft | 455 kts | 117° |
| 2026-05-05 02:55 | 26.19198 | -81.67679 | 21458 ft | 449 kts | 117° |
| 2026-05-05 02:55 | 26.17861 | -81.64554 | 21003 ft | 444 kts | 118° |
| 2026-05-05 02:55 | 26.16538 | -81.61484 | 20526 ft | 438 kts | 118° |
| 2026-05-05 02:55 | 26.15222 | -81.58446 | 20035 ft | 433 kts | 118° |
| 2026-05-05 02:56 | 26.13918 | -81.55446 | 19539 ft | 429 kts | 118° |
| 2026-05-05 02:56 | 26.12625 | -81.52477 | 19059 ft | 425 kts | 119° |
| 2026-05-05 02:56 | 26.11336 | -81.49521 | 18567 ft | 422 kts | 119° |
| 2026-05-05 02:56 | 26.10066 | -81.46610 | 18066 ft | 418 kts | 119° |
| 2026-05-05 02:57 | 26.08814 | -81.43746 | 17523 ft | 414 kts | 119° |
| 2026-05-05 02:57 | 26.07552 | -81.40861 | 17012 ft | 409 kts | 118° |
| 2026-05-05 02:57 | 26.06325 | -81.38060 | 16493 ft | 404 kts | 118° |
| 2026-05-05 02:57 | 26.05089 | -81.35226 | 15987 ft | 400 kts | 118° |
| 2026-05-05 02:58 | 26.03881 | -81.32449 | 15480 ft | 395 kts | 118° |
| 2026-05-05 02:58 | 26.02710 | -81.29756 | 15003 ft | 391 kts | 118° |
| 2026-05-05 02:58 | 26.01533 | -81.27056 | 14506 ft | 386 kts | 118° |
| 2026-05-05 02:58 | 26.00363 | -81.24375 | 14020 ft | 383 kts | 118° |
| 2026-05-05 02:59 | 25.99212 | -81.21740 | 13506 ft | 378 kts | 118° |
| 2026-05-05 02:59 | 25.98045 | -81.19068 | 12830 ft | 377 kts | 118° |
| 2026-05-05 02:59 | 25.96918 | -81.16489 | 12314 ft | 373 kts | 118° |
| 2026-05-05 02:59 | 25.95792 | -81.13914 | 11845 ft | 367 kts | 118° |
| 2026-05-05 03:00 | 25.94686 | -81.11388 | 11348 ft | 362 kts | 118° |
| 2026-05-05 03:00 | 25.93590 | -81.08892 | 10826 ft | 358 kts | 118° |
| 2026-05-05 03:00 | 25.92510 | -81.06426 | 10373 ft | 352 kts | 118° |
| 2026-05-05 03:00 | 25.91450 | -81.04006 | 10066 ft | 342 kts | 118° |
| 2026-05-05 03:01 | 25.90467 | -81.01670 | 9982 ft | 325 kts | 116° |
| 2026-05-05 03:01 | 25.89618 | -80.99410 | 9969 ft | 311 kts | 115° |
| 2026-05-05 03:01 | 25.88791 | -80.97191 | 9976 ft | 310 kts | 115° |
| 2026-05-05 03:01 | 25.87957 | -80.94981 | 9980 ft | 310 kts | 116° |
| 2026-05-05 03:02 | 25.87120 | -80.92782 | 9925 ft | 305 kts | 116° |
| 2026-05-05 03:02 | 25.86296 | -80.90628 | 9544 ft | 304 kts | 116° |
| 2026-05-05 03:02 | 25.85464 | -80.88459 | 8969 ft | 306 kts | 115° |
| 2026-05-05 03:02 | 25.84627 | -80.86279 | 8393 ft | 308 kts | 115° |
| 2026-05-05 03:03 | 25.83785 | -80.84080 | 7825 ft | 309 kts | 115° |
| 2026-05-05 03:03 | 25.82938 | -80.81878 | 7276 ft | 310 kts | 115° |
| 2026-05-05 03:03 | 25.82100 | -80.79703 | 6742 ft | 310 kts | 114° |
| 2026-05-05 03:03 | 25.81257 | -80.77515 | 6392 ft | 303 kts | 114° |
| 2026-05-05 03:04 | 25.80444 | -80.75414 | 6200 ft | 290 kts | 114° |
| 2026-05-05 03:04 | 25.79668 | -80.73394 | 6010 ft | 278 kts | 114° |
| 2026-05-05 03:04 | 25.78924 | -80.71461 | 5823 ft | 267 kts | 114° |
| 2026-05-05 03:04 | 25.78205 | -80.69597 | 5612 ft | 258 kts | 114° |
| 2026-05-05 03:05 | 25.77516 | -80.67776 | 5287 ft | 255 kts | 112° |
| 2026-05-05 03:05 | 25.77144 | -80.65866 | 5000 ft | 252 kts | 93° |
| 2026-05-05 03:05 | 25.77167 | -80.63932 | 4686 ft | 250 kts | 87° |
| 2026-05-05 03:05 | 25.77265 | -80.62017 | 4345 ft | 247 kts | 87° |
| 2026-05-05 03:06 | 25.77366 | -80.60127 | 4040 ft | 243 kts | 87° |
| 2026-05-05 03:06 | 25.77458 | -80.58295 | 3743 ft | 239 kts | 87° |
| 2026-05-05 03:06 | 25.77548 | -80.56452 | 3478 ft | 233 kts | 87° |
| 2026-05-05 03:06 | 25.77654 | -80.54732 | 3438 ft | 219 kts | 85° |
| 2026-05-05 03:07 | 25.77743 | -80.53107 | 3433 ft | 203 kts | 86° |
| 2026-05-05 03:07 | 25.77803 | -80.51615 | 3456 ft | 185 kts | 87° |
| 2026-05-05 03:07 | 25.77846 | -80.50211 | 3360 ft | 181 kts | 88° |
| 2026-05-05 03:07 | 25.77886 | -80.48815 | 3123 ft | 181 kts | 87° |
| 2026-05-05 03:08 | 25.77947 | -80.47423 | 2858 ft | 180 kts | 86° |
| 2026-05-05 03:08 | 25.78007 | -80.46044 | 2620 ft | 177 kts | 86° |
| 2026-05-05 03:08 | 25.78061 | -80.44701 | 2372 ft | 169 kts | 86° |
| 2026-05-05 03:08 | 25.78111 | -80.43450 | 2156 ft | 155 kts | 86° |
| 2026-05-05 03:09 | 25.78158 | -80.42301 | 1972 ft | 145 kts | 87° |
| 2026-05-05 03:09 | 25.78203 | -80.41212 | 1777 ft | 137 kts | 87° |
| 2026-05-05 03:09 | 25.78246 | -80.40176 | 1607 ft | 133 kts | 86° |
| 2026-05-05 03:09 | 25.78290 | -80.39152 | 1433 ft | 133 kts | 86° |
| 2026-05-05 03:10 | 25.78333 | -80.38129 | 1258 ft | 132 kts | 86° |
| 2026-05-05 03:10 | 25.78373 | -80.37145 | 1086 ft | 124 kts | 86° |
| 2026-05-05 03:10 | 25.78411 | -80.36211 | 935 ft | 122 kts | 85° |
| 2026-05-05 03:10 | 25.78455 | -80.35266 | 789 ft | 121 kts | 84° |
| 2026-05-05 03:11 | 25.78497 | -80.34326 | 643 ft | 123 kts | 88° |
| 2026-05-05 03:11 | 25.78534 | -80.33392 | 482 ft | 122 kts | 88° |
| 2026-05-05 03:11 | 25.78573 | -80.32454 | 319 ft | 123 kts | 85° |
| 2026-05-05 03:11 | 25.78617 | -80.31499 | 151 ft | 124 kts | 87° |
| 2026-05-05 03:12 | 25.78649 | -80.30548 | 27 ft | 120 kts | 86° |
| 2026-05-05 03:12 | 25.78682 | -80.29745 | 25 ft | 74 kts | 87° |
| 2026-05-05 03:12 | 25.78695 | -80.29429 | 20 ft | 26 kts | 87° |
| 2026-05-05 03:12 | 25.78702 | -80.29248 | 22 ft | 23 kts | 87° |
| 2026-05-05 03:13 | 25.78710 | -80.29059 | 25 ft | 25 kts | 87° |
| 2026-05-05 03:13 | 25.78717 | -80.28868 | 21 ft | 23 kts | 87° |
| 2026-05-05 03:13 | 25.78725 | -80.28690 | 26 ft | 24 kts | 86° |
| 2026-05-05 03:13 | 25.78765 | -80.28507 | 24 ft | 25 kts | 59° |
| 2026-05-05 03:14 | 25.78848 | -80.28410 | 25 ft | 6 kts | 12° |
| 2026-05-05 03:14 | 25.78874 | -80.28438 | 24 ft | 7 kts | 295° |
| 2026-05-05 03:14 | 25.78876 | -80.28507 | 23 ft | 10 kts | 274° |
| 2026-05-05 03:14 | 25.78874 | -80.28613 | 21 ft | 17 kts | 267° |
| 2026-05-05 03:15 | 25.78873 | -80.28659 | 21 ft | 2 kts | 272° |
| 2026-05-05 03:15 | 25.78883 | -80.28670 | 21 ft | 4 kts | 323° |
| 2026-05-05 03:15 | 25.78936 | -80.28685 | 24 ft | 12 kts | 356° |
| 2026-05-05 03:15 | 25.79036 | -80.28692 | 23 ft | 15 kts | 356° |
| 2026-05-05 03:16 | 25.79131 | -80.28688 | 25 ft | 12 kts | 18° |
| 2026-05-05 03:16 | 25.79220 | -80.28652 | 23 ft | 16 kts | 20° |
| 2026-05-05 03:16 | 25.79300 | -80.28620 | 26 ft | 0 kts | 18° |
| 2026-05-05 03:17 | 25.79313 | -80.28619 | 25 ft | 5 kts | 358° |
| 2026-05-05 03:17 | 25.79352 | -80.28675 | 22 ft | 18 kts | 300° |
| 2026-05-05 03:17 | 25.79359 | -80.28690 | 23 ft | 0 kts | 300° |
| 2026-05-05 03:18 | 25.79367 | -80.28704 | 24 ft | 10 kts | 300° |
| 2026-05-05 03:18 | 25.79372 | -80.28783 | 24 ft | 11 kts | 233° |
| 2026-05-05 03:18 | 25.79329 | -80.28790 | 24 ft | 5 kts | 150° |
| 2026-05-05 03:18 | 25.79303 | -80.28749 | 25 ft | 7 kts | 107° |
| 2026-05-05 03:19 | 25.79326 | -80.28622 | 25 ft | 10 kts | 76° |
| 2026-05-05 03:19 | 25.79376 | -80.28570 | 25 ft | 11 kts | 12° |
| 2026-05-05 03:19 | 25.79460 | -80.28575 | 24 ft | 9 kts | 356° |
| 2026-05-05 03:20 | 25.79513 | -80.28560 | 22 ft | 6 kts | 53° |
| 2026-05-05 03:20 | 25.79514 | -80.28534 | 23 ft | 5 kts | 89° |
| 2026-05-05 03:20 | 25.79517 | -80.28498 | 22 ft | 3 kts | 83° |
| 2026-05-05 03:20 | 25.79517 | -80.28494 | 23 ft | 0 kts | 83° |